Time;durP1;ratioP1;P1;durP2;ratioP2;P2;SDS_P1;SDS_P2;PMS_P1;PMS_P2;Temp;Humidity;BMP_temperature;BMP_pressure;BME280_temperature;BME280_humidity;BME280_pressure;Samples;Min_cycle;Max_cycle;Signal;HPM_P1;HPM_P2
2020/12/23 00:00:14;;;;;;;17.50;12.67;;;12.30;91.50;;;;;;5073260;28;20131;-80
2020/12/23 00:02:44;;;;;;;21.90;15.43;;;12.30;91.50;;;;;;5075700;28;20084;-78
2020/12/23 00:05:13;;;;;;;20.60;12.93;;;12.30;91.50;;;;;;5110280;28;20470;-78
2020/12/23 00:07:38;;;;;;;20.00;13.53;;;12.30;91.70;;;;;;5090760;28;20028;-78
2020/12/23 00:10:05;;;;;;;19.83;14.20;;;12.20;91.50;;;;;;5075167;28;20039;-78
2020/12/23 00:12:31;;;;;;;22.90;15.00;;;12.20;91.50;;;;;;5073973;28;20044;-78
2020/12/23 00:14:57;;;;;;;20.50;13.57;;;12.20;91.60;;;;;;5092499;28;20023;-78
2020/12/23 00:17:22;;;;;;;24.10;16.00;;;12.20;91.60;;;;;;5074454;28;20521;-78
2020/12/23 00:19:48;;;;;;;23.20;16.23;;;12.20;91.60;;;;;;5092044;28;20123;-78
2020/12/23 00:22:15;;;;;;;23.33;17.27;;;12.20;91.60;;;;;;5092270;28;20032;-78
2020/12/23 00:24:41;;;;;;;26.27;18.90;;;12.10;91.60;;;;;;5092449;28;20016;-78
2020/12/23 00:27:07;;;;;;;21.83;14.70;;;12.10;91.70;;;;;;5092121;28;20031;-78
2020/12/23 00:29:33;;;;;;;22.30;13.53;;;12.20;91.70;;;;;;5109274;28;20032;-78
2020/12/23 00:31:58;;;;;;;18.37;12.63;;;12.10;91.70;;;;;;5091054;28;20047;-79
2020/12/23 00:34:24;;;;;;;22.57;15.67;;;12.10;91.70;;;;;;5093081;28;20030;-79
2020/12/23 00:36:54;;;;;;;23.93;13.83;;;12.00;91.70;;;;;;5109568;28;20031;-78
2020/12/23 00:39:20;;;;;;;21.93;11.67;;;12.00;91.70;;;;;;5076454;28;20028;-79
2020/12/23 00:41:46;;;;;;;21.83;12.07;;;12.00;91.70;;;;;;5109681;28;20046;-79
2020/12/23 00:44:12;;;;;;;21.80;12.43;;;11.90;91.70;;;;;;5109372;28;20028;-79
2020/12/23 00:46:37;;;;;;;20.47;12.93;;;11.80;91.80;;;;;;5092515;28;20510;-77
2020/12/23 00:49:03;;;;;;;19.87;11.73;;;11.90;91.80;;;;;;5074794;28;20028;-79
2020/12/23 00:51:29;;;;;;;18.00;11.27;;;11.90;91.90;;;;;;5087451;28;20052;-78
2020/12/23 00:53:54;;;;;;;17.70;11.43;;;11.90;91.80;;;;;;5082560;28;20012;-78
2020/12/23 00:56:20;;;;;;;21.80;13.63;;;11.90;91.90;;;;;;5079980;28;20024;-79
2020/12/23 00:58:46;;;;;;;23.20;12.33;;;11.90;91.90;;;;;;5096290;28;20008;-78
2020/12/23 01:01:13;;;;;;;19.80;11.33;;;11.90;91.90;;;;;;5102380;28;20036;-79
2020/12/23 01:03:38;;;;;;;22.43;11.93;;;11.90;91.90;;;;;;5112151;28;20017;-77
2020/12/23 01:06:11;;;;;;;23.37;13.10;;;11.80;91.90;;;;;;5090472;28;20056;-79
2020/12/23 01:08:37;;;;;;;19.48;11.57;;;11.80;91.90;;;;;;5093703;28;20035;-77
2020/12/23 01:11:07;;;;;;;19.67;12.23;;;11.80;91.90;;;;;;5095212;28;20050;-79
2020/12/23 01:13:34;;;;;;;22.67;13.47;;;11.90;92.00;;;;;;5104160;28;20050;-79
2020/12/23 01:16:00;;;;;;;23.03;14.23;;;11.90;92.00;;;;;;5091354;28;20043;-79
2020/12/23 01:18:26;;;;;;;20.63;13.53;;;11.90;92.00;;;;;;5099777;28;20043;-78
2020/12/23 01:20:51;;;;;;;21.60;13.87;;;12.00;91.90;;;;;;5109509;28;20102;-79
2020/12/23 01:23:18;;;;;;;20.50;13.87;;;12.00;91.90;;;;;;5110473;28;20103;-79
2020/12/23 01:25:44;;;;;;;22.07;15.97;;;12.10;91.90;;;;;;5089865;28;20064;-79
2020/12/23 01:28:10;;;;;;;22.37;14.33;;;12.10;91.90;;;;;;5073219;28;20415;-78
2020/12/23 01:30:36;;;;;;;22.37;15.03;;;12.20;91.80;;;;;;5109710;28;20111;-78
2020/12/23 01:33:03;;;;;;;20.03;14.50;;;12.20;91.80;;;;;;5092050;28;20115;-80
2020/12/23 01:35:29;;;;;;;18.27;13.17;;;12.20;91.80;;;;;;5111671;28;20027;-80
2020/12/23 01:37:55;;;;;;;17.80;12.63;;;12.20;91.80;;;;;;5090744;28;20467;-79
2020/12/23 01:40:20;;;;;;;26.87;15.93;;;12.20;91.70;;;;;;5119134;28;20057;-80
2020/12/23 01:42:46;;;;;;;25.67;15.47;;;12.20;91.60;;;;;;5088910;28;20043;-79
2020/12/23 01:45:11;;;;;;;21.87;13.47;;;12.10;91.60;;;;;;5087628;28;20099;-80
2020/12/23 01:47:43;;;;;;;23.40;13.67;;;12.00;91.60;;;;;;5080351;28;20119;-79
2020/12/23 01:50:08;;;;;;;24.53;13.90;;;11.90;91.60;;;;;;5093685;28;20031;-79
2020/12/23 01:52:34;;;;;;;22.77;14.20;;;11.90;91.70;;;;;;5096513;28;20036;-79
2020/12/23 01:55:01;;;;;;;27.07;15.20;;;11.80;91.70;;;;;;5112562;28;20024;-79
2020/12/23 01:57:26;;;;;;;29.63;17.73;;;11.80;91.80;;;;;;5094266;28;20027;-79
2020/12/23 01:59:52;;;;;;;24.83;16.70;;;11.70;91.90;;;;;;5094541;28;20066;-79
2020/12/23 02:02:28;;;;;;;25.77;16.23;;;11.60;92.00;;;;;;5078798;28;20806;-79
2020/12/23 02:04:55;;;;;;;26.47;16.97;;;11.60;92.10;;;;;;5111364;28;20115;-79
2020/12/23 02:07:23;;;;;;;23.60;16.60;;;11.50;92.10;;;;;;5111627;28;20023;-79
2020/12/23 02:09:50;;;;;;;28.47;17.80;;;11.60;92.20;;;;;;5094515;28;20085;-78
2020/12/23 02:12:17;;;;;;;33.33;18.57;;;11.50;92.20;;;;;;5074826;28;20467;-79
2020/12/23 02:14:42;;;;;;;25.13;17.97;;;11.50;92.20;;;;;;5094250;28;20023;-77
2020/12/23 02:17:08;;;;;;;28.50;18.07;;;11.50;92.20;;;;;;5113341;28;20547;-79
2020/12/23 02:19:34;;;;;;;29.47;18.97;;;11.50;92.30;;;;;;5111609;28;20059;-78
2020/12/23 02:22:01;;;;;;;32.93;20.33;;;11.50;92.30;;;;;;5094043;28;20077;-79
2020/12/23 02:24:27;;;;;;;34.00;22.30;;;11.50;92.40;;;;;;5089392;28;20032;-79
2020/12/23 02:26:53;;;;;;;30.07;19.93;;;11.40;92.50;;;;;;5110652;28;20415;-79
2020/12/23 02:29:18;;;;;;;29.27;20.03;;;11.40;92.50;;;;;;5089425;28;20032;-79
2020/12/23 02:31:44;;;;;;;31.77;20.30;;;11.50;92.60;;;;;;5074293;28;20039;-77
2020/12/23 02:34:09;;;;;;;30.87;20.83;;;11.50;92.50;;;;;;5071634;28;20035;-80
2020/12/23 02:36:35;;;;;;;31.17;20.73;;;11.50;92.50;;;;;;5094110;28;20032;-79
2020/12/23 02:39:01;;;;;;;31.20;21.80;;;11.50;92.50;;;;;;5090665;28;20028;-79
2020/12/23 02:41:26;;;;;;;40.43;25.20;;;11.50;92.50;;;;;;5078124;28;20066;-80
2020/12/23 02:43:52;;;;;;;33.60;23.77;;;11.60;92.50;;;;;;5093159;28;20035;-79
2020/12/23 02:46:19;;;;;;;33.47;23.73;;;11.50;92.40;;;;;;5090964;28;20066;-80
2020/12/23 02:48:45;;;;;;;31.40;22.23;;;11.50;92.50;;;;;;5104380;28;20047;-78
2020/12/23 02:51:11;;;;;;;26.23;20.43;;;11.50;92.50;;;;;;5094534;28;20028;-79
2020/12/23 02:53:36;;;;;;;29.27;20.07;;;11.50;92.50;;;;;;5109842;28;20035;-79
2020/12/23 02:56:03;;;;;;;28.67;20.97;;;11.60;92.60;;;;;;5072626;28;20491;-78
2020/12/23 02:58:28;;;;;;;30.20;19.90;;;11.60;92.60;;;;;;5106120;28;20031;-78
2020/12/23 03:00:54;;;;;;;25.50;20.03;;;11.60;92.50;;;;;;5093751;28;20036;-77
2020/12/23 03:03:20;;;;;;;28.63;20.33;;;11.60;92.50;;;;;;5093830;28;20463;-78
2020/12/23 03:05:45;;;;;;;25.27;19.20;;;11.60;92.50;;;;;;5074379;28;20034;-76
2020/12/23 03:08:11;;;;;;;25.50;19.37;;;11.60;92.50;;;;;;5110726;28;20475;-78
2020/12/23 03:10:36;;;;;;;24.73;19.37;;;11.60;92.50;;;;;;5093115;28;20031;-78
2020/12/23 03:13:02;;;;;;;24.23;17.87;;;11.70;92.60;;;;;;5075550;28;20050;-78
2020/12/23 03:15:28;;;;;;;22.73;16.87;;;11.70;92.60;;;;;;5077273;28;20080;-77
2020/12/23 03:17:53;;;;;;;18.67;15.97;;;11.70;92.60;;;;;;5111503;28;20494;-78
2020/12/23 03:20:19;;;;;;;22.57;15.73;;;11.70;92.60;;;;;;5111882;28;20036;-78
2020/12/23 03:22:44;;;;;;;22.63;15.57;;;11.70;92.50;;;;;;5091815;28;20516;-77
2020/12/23 03:25:10;;;;;;;17.90;14.30;;;11.80;92.60;;;;;;5092307;28;20032;-78
2020/12/23 03:27:36;;;;;;;17.80;13.17;;;11.80;92.60;;;;;;5112183;28;20472;-79
2020/12/23 03:30:03;;;;;;;15.70;12.00;;;11.80;92.50;;;;;;5092109;28;20024;-79
2020/12/23 03:32:28;;;;;;;16.67;11.73;;;11.90;92.60;;;;;;5075029;28;20024;-78
2020/12/23 03:34:54;;;;;;;18.37;11.50;;;11.90;92.50;;;;;;5110455;28;20031;-79
2020/12/23 03:37:19;;;;;;;14.13;10.93;;;12.00;92.50;;;;;;5092863;28;20032;-78
2020/12/23 03:39:45;;;;;;;14.37;10.87;;;12.00;92.50;;;;;;5075739;28;20035;-77
2020/12/23 03:42:11;;;;;;;14.43;10.23;;;12.00;92.50;;;;;;5093278;28;20123;-78
2020/12/23 03:44:36;;;;;;;12.50;9.23;;;12.00;92.50;;;;;;5111962;28;20039;-78
2020/12/23 03:47:02;;;;;;;12.03;9.27;;;12.00;92.50;;;;;;5076080;28;20063;-78
2020/12/23 03:49:28;;;;;;;11.87;9.60;;;12.10;92.50;;;;;;5110887;28;20046;-78
2020/12/23 03:51:53;;;;;;;12.20;8.73;;;12.10;92.70;;;;;;5111159;28;20043;-78
2020/12/23 03:54:19;;;;;;;14.37;9.60;;;12.10;92.40;;;;;;5091501;28;20165;-77
2020/12/23 03:56:44;;;;;;;13.87;9.47;;;12.10;92.40;;;;;;5109636;28;20059;-78
2020/12/23 03:59:10;;;;;;;13.70;9.60;;;12.10;92.40;;;;;;5110470;28;20096;-80
2020/12/23 04:01:35;;;;;;;13.50;8.63;;;12.10;92.40;;;;;;5110201;28;20043;-78
2020/12/23 04:04:01;;;;;;;11.03;8.70;;;12.10;92.40;;;;;;5110085;28;20031;-78
2020/12/23 04:06:27;;;;;;;12.63;8.43;;;12.10;92.50;;;;;;5091835;28;20034;-77
2020/12/23 04:08:52;;;;;;;10.83;8.83;;;12.10;92.50;;;;;;5088311;28;20392;-78
2020/12/23 04:11:18;;;;;;;12.10;9.77;;;12.10;92.40;;;;;;5077508;28;20032;-78
2020/12/23 04:13:43;;;;;;;15.07;10.23;;;12.10;92.40;;;;;;5093312;28;20066;-77
2020/12/23 04:16:09;;;;;;;13.87;10.30;;;12.10;92.40;;;;;;5109571;28;20042;-77
2020/12/23 04:18:34;;;;;;;16.20;11.43;;;12.10;92.50;;;;;;5092343;28;20479;-77
2020/12/23 04:21:00;;;;;;;16.67;12.50;;;12.10;92.50;;;;;;5110633;28;20107;-77
2020/12/23 04:23:26;;;;;;;16.43;11.53;;;12.00;92.50;;;;;;5080178;28;20139;-77
2020/12/23 04:25:52;;;;;;;18.53;13.00;;;12.00;92.50;;;;;;5097915;28;20479;-77
2020/12/23 04:28:17;;;;;;;18.07;12.10;;;12.00;92.60;;;;;;5111164;28;20085;-77
2020/12/23 04:30:45;;;;;;;17.60;13.13;;;12.10;92.60;;;;;;5092290;28;20097;-77
2020/12/23 04:33:11;;;;;;;19.10;14.23;;;12.00;92.60;;;;;;5109708;28;20051;-77
2020/12/23 04:35:37;;;;;;;26.17;16.90;;;12.00;92.60;;;;;;5092938;28;20062;-77
2020/12/23 04:38:03;;;;;;;19.03;12.83;;;12.00;92.60;;;;;;5091510;28;20046;-77
2020/12/23 04:40:28;;;;;;;21.43;14.47;;;12.00;92.70;;;;;;5110026;28;20032;-77
2020/12/23 04:42:54;;;;;;;23.90;14.27;;;12.00;92.70;;;;;;5109275;28;20062;-77
2020/12/23 04:45:20;;;;;;;22.33;14.40;;;12.00;92.80;;;;;;5091675;28;20114;-77
2020/12/23 04:47:48;;;;;;;16.67;12.53;;;11.90;92.80;;;;;;5092035;28;20483;-77
2020/12/23 04:50:19;;;;;;;18.33;12.87;;;11.90;92.80;;;;;;5092379;28;20043;-77
2020/12/23 04:52:45;;;;;;;24.27;14.90;;;11.90;92.90;;;;;;5109591;28;20035;-77
2020/12/23 04:55:11;;;;;;;22.23;14.03;;;12.00;92.90;;;;;;5092215;28;20096;-77
2020/12/23 04:57:39;;;;;;;18.20;12.93;;;12.00;92.90;;;;;;5092044;28;20056;-77
2020/12/23 05:00:08;;;;;;;22.40;14.53;;;12.00;92.90;;;;;;5108702;28;20115;-77
2020/12/23 05:02:34;;;;;;;22.00;15.23;;;12.00;92.90;;;;;;5092660;28;20039;-77
2020/12/23 05:05:00;;;;;;;21.07;14.97;;;12.00;92.90;;;;;;5081353;28;20040;-77
2020/12/23 05:07:25;;;;;;;19.10;14.50;;;12.00;92.90;;;;;;5109738;28;20050;-77
2020/12/23 05:09:51;;;;;;;24.07;16.70;;;12.00;92.90;;;;;;5092548;28;20081;-79
2020/12/23 05:12:18;;;;;;;21.17;15.03;;;12.00;92.90;;;;;;5090964;28;20023;-77
2020/12/23 05:14:43;;;;;;;24.00;17.10;;;12.00;92.90;;;;;;5091583;28;20019;-77
2020/12/23 05:17:10;;;;;;;19.97;15.60;;;12.00;92.90;;;;;;5113148;28;20134;-77
2020/12/23 05:19:40;;;;;;;27.70;16.67;;;12.00;92.90;;;;;;5092821;28;20028;-77
2020/12/23 05:22:07;;;;;;;19.90;15.80;;;12.00;92.90;;;;;;5092157;28;20069;-78
2020/12/23 05:24:38;;;;;;;23.27;16.03;;;12.00;93.00;;;;;;5113760;28;20433;-78
2020/12/23 05:27:06;;;;;;;22.27;16.07;;;11.90;93.00;;;;;;5095249;28;20024;-78
2020/12/23 05:29:32;;;;;;;24.27;15.87;;;11.90;93.00;;;;;;5095006;28;20015;-77
2020/12/23 05:31:57;;;;;;;18.60;13.60;;;11.80;93.10;;;;;;5113067;28;20395;-77
2020/12/23 05:34:24;;;;;;;18.90;14.70;;;11.80;93.10;;;;;;5113970;28;20032;-77
2020/12/23 05:36:51;;;;;;;21.97;15.17;;;11.80;93.10;;;;;;5114116;28;20128;-77
2020/12/23 05:39:17;;;;;;;21.73;15.70;;;11.80;93.20;;;;;;5114034;28;20035;-77
2020/12/23 05:41:43;;;;;;;20.47;14.60;;;11.80;93.20;;;;;;5113899;28;20382;-77
2020/12/23 05:44:17;;;;;;;14.77;11.87;;;11.80;93.30;;;;;;5112854;28;20820;-77
2020/12/23 05:46:48;;;;;;;13.60;11.47;;;11.90;93.30;;;;;;5095159;28;20351;-77
2020/12/23 05:49:19;;;;;;;14.87;10.80;;;11.90;93.30;;;;;;5113501;28;20089;-77
2020/12/23 05:51:45;;;;;;;13.07;10.20;;;11.90;93.30;;;;;;5113876;28;20039;-77
2020/12/23 05:54:12;;;;;;;13.37;10.63;;;12.00;93.30;;;;;;5094309;28;20031;-77
2020/12/23 05:56:39;;;;;;;11.50;9.00;;;12.00;93.30;;;;;;5114288;28;20032;-78
2020/12/23 05:59:05;;;;;;;13.43;10.23;;;12.00;93.20;;;;;;5112170;28;20440;-77
2020/12/23 06:01:36;;;;;;;9.40;7.37;;;12.00;93.20;;;;;;5094924;28;20059;-78
2020/12/23 06:04:07;;;;;;;10.47;6.90;;;12.00;93.20;;;;;;5113657;28;20073;-77
2020/12/23 06:06:34;;;;;;;7.83;6.80;;;12.00;93.20;;;;;;5113788;28;20035;-78
2020/12/23 06:09:04;;;;;;;5.30;4.60;;;12.10;93.30;;;;;;5078507;28;20090;-77
2020/12/23 06:11:31;;;;;;;4.77;3.70;;;12.10;93.20;;;;;;5093311;28;20035;-77
2020/12/23 06:14:18;;;;;;;5.33;3.37;;;12.10;93.20;;;;;;5109408;28;20031;-78
2020/12/23 06:16:50;;;;;;;2.73;2.53;;;12.10;93.30;;;;;;5094589;28;20059;-77
2020/12/23 06:19:19;;;;;;;5.17;2.00;;;12.10;93.20;;;;;;5112317;28;20422;-78
2020/12/23 06:21:46;;;;;;;3.07;2.00;;;12.20;93.20;;;;;;5095429;28;20407;-77
2020/12/23 06:24:13;;;;;;;4.37;1.63;;;12.10;93.20;;;;;;5092595;28;20410;-78
2020/12/23 06:26:46;;;;;;;2.00;1.50;;;12.20;93.10;;;;;;5113550;28;20023;-78
2020/12/23 06:29:16;;;;;;;;;;;12.20;93.10;;;;;;5094725;28;20077;-77
2020/12/23 06:31:52;;;;;;;1.73;0.90;;;12.20;93.10;;;;;;5111820;28;19912;-77
2020/12/23 06:34:21;;;;;;;1.50;0.80;;;12.20;93.10;;;;;;5106536;28;20016;-78
2020/12/23 06:36:48;;;;;;;1.30;0.70;;;12.20;93.00;;;;;;5109798;28;20375;-78
2020/12/23 06:39:32;;;;;;;4.60;1.00;;;12.30;93.00;;;;;;5093474;28;20039;-78
2020/12/23 06:42:00;;;;;;;1.10;0.70;;;12.30;93.20;;;;;;5091633;27;20054;-78
2020/12/23 06:44:59;;;;;;;1.43;0.70;;;12.20;92.90;;;;;;5094123;28;20032;-78
2020/12/23 06:47:30;;;;;;;3.20;0.63;;;12.30;92.90;;;;;;5108568;27;20120;-77
2020/12/23 06:50:02;;;;;;;3.13;0.93;;;12.30;92.90;;;;;;5093972;28;20031;-79
2020/12/23 06:52:29;;;;;;;1.70;0.50;;;12.30;92.90;;;;;;5094135;28;20475;-78
2020/12/23 06:55:01;;;;;;;1.77;0.50;;;12.30;92.90;;;;;;5095053;28;20077;-78
2020/12/23 06:57:38;;;;;;;2.40;0.50;;;12.30;92.80;;;;;;5110446;28;20042;-78
2020/12/23 07:00:10;;;;;;;2.33;0.63;;;12.30;92.80;;;;;;5094165;28;20057;-78
2020/12/23 07:02:42;;;;;;;1.55;0.50;;;12.30;92.80;;;;;;5098413;28;20035;-78
2020/12/23 07:05:11;;;;;;;1.33;0.60;;;12.30;92.70;;;;;;5084826;28;20119;-77
2020/12/23 07:07:44;;;;;;;1.53;0.70;;;12.30;92.70;;;;;;5113304;28;20111;-80
2020/12/23 07:10:15;;;;;;;1.88;0.50;;;12.30;92.70;;;;;;5093397;28;20131;-77
2020/12/23 07:13:04;;;;;;;1.57;0.60;;;12.30;92.70;;;;;;5092806;28;20498;-77
2020/12/23 07:15:42;;;;;;;0.97;0.50;;;12.30;92.60;;;;;;5111679;28;20049;-77
2020/12/23 07:18:09;;;;;;;1.30;0.60;;;12.30;92.60;;;;;;5093190;28;20051;-77
2020/12/23 07:20:35;;;;;;;3.80;0.70;;;12.30;92.60;;;;;;5086109;28;20118;-77
2020/12/23 07:23:06;;;;;;;3.10;1.00;;;12.30;92.60;;;;;;5104880;28;20132;-79
2020/12/23 07:25:35;;;;;;;2.33;0.97;;;12.20;92.60;;;;;;5112878;28;20486;-76
2020/12/23 07:28:05;;;;;;;2.63;1.50;;;12.20;92.60;;;;;;5106055;27;20023;-78
2020/12/23 07:30:37;;;;;;;2.50;0.80;;;12.20;92.60;;;;;;5103584;28;20104;-78
2020/12/23 07:33:07;;;;;;;2.53;1.63;;;12.20;92.50;;;;;;5095513;28;20031;-78
2020/12/23 07:35:33;;;;;;;2.70;1.20;;;12.20;92.60;;;;;;5112542;28;20126;-77
2020/12/23 07:38:01;;;;;;;3.23;1.73;;;12.20;92.60;;;;;;5112514;28;20051;-76
2020/12/23 07:40:28;;;;;;;1.77;1.00;;;12.20;92.60;;;;;;5098712;28;20112;-77
2020/12/23 07:42:56;;;;;;;2.50;1.53;;;12.20;92.60;;;;;;5092835;28;20036;-77
2020/12/23 07:45:24;;;;;;;4.27;1.83;;;12.20;92.60;;;;;;5093845;28;20221;-78
2020/12/23 07:48:00;;;;;;;3.57;0.97;;;12.20;92.60;;;;;;5091312;28;20524;-78
2020/12/23 07:50:29;;;;;;;1.80;1.07;;;12.20;92.50;;;;;;5088955;28;20475;-77
2020/12/23 07:52:55;;;;;;;6.47;3.03;;;12.10;92.50;;;;;;5094428;28;20050;-78
2020/12/23 07:55:22;;;;;;;4.67;2.13;;;12.20;92.50;;;;;;5109120;28;20039;-78
2020/12/23 07:57:50;;;;;;;3.03;2.60;;;12.10;92.50;;;;;;5067923;28;20039;-79
2020/12/23 08:00:16;;;;;;;5.07;3.80;;;12.10;92.50;;;;;;5085374;28;20524;-78
2020/12/23 08:02:42;;;;;;;3.87;2.23;;;12.10;92.50;;;;;;5058062;28;20028;-79
2020/12/23 08:05:09;;;;;;;3.43;2.97;;;12.10;92.40;;;;;;5077241;28;20057;-78
2020/12/23 08:07:43;;;;;;;3.17;1.77;;;12.10;92.50;;;;;;5089251;28;20051;-78
2020/12/23 08:10:18;;;;;;;5.20;3.50;;;12.10;92.40;;;;;;5085281;28;20031;-79
2020/12/23 08:13:04;;;;;;;2.43;0.90;;;12.10;92.40;;;;;;5094032;28;20038;-78
2020/12/23 08:15:30;;;;;;;2.13;1.37;;;12.10;92.40;;;;;;5092471;28;20131;-79
2020/12/23 08:18:04;;;;;;;4.63;2.23;;;12.10;92.30;;;;;;5093277;28;20058;-79
2020/12/23 08:20:31;;;;;;;3.33;2.70;;;12.10;92.30;;;;;;5109811;28;20104;-78
2020/12/23 08:22:58;;;;;;;6.73;4.27;;;12.10;92.40;;;;;;5104954;28;20060;-78
2020/12/23 08:25:27;;;;;;;4.17;3.27;;;12.10;92.20;;;;;;5092459;28;20041;-76
2020/12/23 08:27:55;;;;;;;5.63;4.20;;;12.10;92.30;;;;;;5112305;28;20042;-78
2020/12/23 08:30:23;;;;;;;3.93;2.77;;;12.10;92.20;;;;;;5109759;28;20475;-77
2020/12/23 08:33:03;;;;;;;4.37;3.10;;;12.20;92.30;;;;;;5111423;28;20471;-77
2020/12/23 08:35:39;;;;;;;9.60;5.93;;;12.20;92.30;;;;;;5110759;28;20023;-78
2020/12/23 08:38:15;;;;;;;6.90;5.07;;;12.20;92.20;;;;;;5091974;28;20020;-78
2020/12/23 08:40:48;;;;;;;3.10;1.90;;;12.20;92.20;;;;;;5111661;28;20107;-78
2020/12/23 08:43:22;;;;;;;7.40;5.87;;;12.20;92.20;;;;;;5087360;28;20028;-79
2020/12/23 08:45:49;;;;;;;5.70;4.47;;;12.20;92.20;;;;;;5085826;28;20032;-78
2020/12/23 08:48:19;;;;;;;8.33;4.93;;;12.20;92.20;;;;;;5092418;28;20061;-77
2020/12/23 08:50:56;;;;;;;8.47;5.33;;;12.20;92.20;;;;;;5110834;28;20443;-76
2020/12/23 08:53:36;;;;;;;6.80;4.50;;;12.30;92.20;;;;;;5074376;28;20118;-77
2020/12/23 08:56:21;;;;;;;7.23;3.47;;;12.30;92.20;;;;;;5082742;28;20093;-78
2020/12/23 08:58:49;;;;;;;10.10;6.60;;;12.30;92.10;;;;;;5086666;28;20028;-78
2020/12/23 09:01:22;;;;;;;3.87;2.77;;;12.40;92.10;;;;;;5071883;28;20064;-78
2020/12/23 09:04:00;;;;;;;5.80;2.85;;;12.40;92.10;;;;;;5089633;28;20031;-79
2020/12/23 09:06:26;;;;;;;5.83;3.73;;;12.40;92.00;;;;;;5109364;28;20091;-78
2020/12/23 09:08:52;;;;;;;5.83;3.60;;;12.40;91.90;;;;;;5090556;28;20114;-78
2020/12/23 09:11:18;;;;;;;5.60;3.87;;;12.50;91.80;;;;;;5089816;28;20039;-77
2020/12/23 09:13:43;;;;;;;6.37;4.40;;;12.50;92.00;;;;;;5073603;28;20493;-77
2020/12/23 09:16:16;;;;;;;3.43;1.60;;;12.50;91.80;;;;;;5085910;28;20028;-77
2020/12/23 09:18:49;;;;;;;2.13;1.65;;;12.60;91.70;;;;;;5092642;28;20550;-78
2020/12/23 09:21:19;;;;;;;3.23;1.70;;;12.60;91.60;;;;;;5109880;28;20035;-78
2020/12/23 09:23:45;;;;;;;3.30;1.77;;;12.70;91.60;;;;;;5091930;28;20550;-78
2020/12/23 09:26:17;;;;;;;6.30;3.47;;;12.70;91.50;;;;;;5092460;28;20119;-79
2020/12/23 09:28:42;;;;;;;1.80;1.00;;;12.80;91.50;;;;;;5081087;28;20407;-77
2020/12/23 09:31:08;;;;;;;2.47;1.53;;;12.80;91.40;;;;;;5115208;28;20063;-80
2020/12/23 09:33:41;;;;;;;5.37;2.40;;;12.80;91.30;;;;;;5097494;28;20074;-78
2020/12/23 09:36:07;;;;;;;;;;;12.80;91.30;;;;;;5097751;28;20036;-78
2020/12/23 09:38:36;;;;;;;3.90;3.15;;;12.90;91.30;;;;;;5114853;28;19918;-77
2020/12/23 09:41:04;;;;;;;7.03;3.33;;;12.90;91.20;;;;;;5092079;28;20460;-77
2020/12/23 09:43:33;;;;;;;5.33;2.50;;;12.90;91.20;;;;;;5108553;28;20112;-77
2020/12/23 09:46:02;;;;;;;3.60;2.20;;;12.90;91.20;;;;;;5092424;28;20058;-77
2020/12/23 09:48:28;;;;;;;4.57;2.90;;;12.90;91.20;;;;;;5107545;28;20027;-77
2020/12/23 09:50:55;;;;;;;6.03;3.67;;;12.90;91.10;;;;;;5110767;28;20116;-76
2020/12/23 09:53:25;;;;;;;3.45;2.92;;;12.90;91.10;;;;;;5091067;28;20602;-78
2020/12/23 09:55:52;;;;;;;5.50;2.55;;;12.90;91.00;;;;;;5092449;28;20389;-78
2020/12/23 09:58:18;;;;;;;3.30;2.10;;;12.90;91.00;;;;;;5111955;28;20023;-78
2020/12/23 10:00:46;;;;;;;3.92;1.38;;;12.90;90.90;;;;;;5110927;28;20039;-78
2020/12/23 10:03:12;;;;;;;4.82;1.77;;;12.80;90.80;;;;;;5110046;28;20070;-78
2020/12/23 10:05:39;;;;;;;2.27;1.50;;;12.80;90.80;;;;;;5075057;28;20060;-77
2020/12/23 10:08:06;;;;;;;3.40;1.70;;;12.70;90.80;;;;;;5075418;28;20020;-78
2020/12/23 10:10:33;;;;;;;2.40;1.60;;;12.70;90.90;;;;;;5086915;28;20032;-78
2020/12/23 10:12:58;;;;;;;3.50;2.30;;;12.70;90.90;;;;;;5093715;28;20118;-77
2020/12/23 10:15:24;;;;;;;5.00;2.00;;;12.70;90.90;;;;;;5061420;28;20122;-78
2020/12/23 10:17:50;;;;;;;3.67;2.25;;;12.70;91.00;;;;;;5094538;28;20104;-78
2020/12/23 10:20:16;;;;;;;3.77;2.57;;;12.70;91.00;;;;;;5111776;28;20032;-78
2020/12/23 10:22:41;;;;;;;4.35;3.13;;;12.60;91.10;;;;;;5114196;28;20055;-78
2020/12/23 10:25:08;;;;;;;6.47;4.80;;;12.60;91.20;;;;;;5094739;28;20114;-77
2020/12/23 10:27:35;;;;;;;5.53;3.47;;;12.60;91.30;;;;;;5088993;28;20040;-77
2020/12/23 10:30:02;;;;;;;4.77;3.17;;;12.60;91.30;;;;;;5074961;28;20444;-77
2020/12/23 10:32:31;;;;;;;5.70;4.37;;;12.60;91.40;;;;;;5095201;28;20527;-77
2020/12/23 10:34:57;;;;;;;7.67;5.63;;;12.50;91.40;;;;;;5079912;28;20056;-77
2020/12/23 10:37:23;;;;;;;6.67;4.60;;;12.60;91.50;;;;;;5087363;28;20473;-78
2020/12/23 10:39:52;;;;;;;6.33;3.70;;;12.60;91.50;;;;;;5078242;28;20031;-78
2020/12/23 10:42:18;;;;;;;7.07;4.00;;;12.60;91.50;;;;;;5093262;28;20119;-78
2020/12/23 10:44:44;;;;;;;5.40;3.73;;;12.60;91.50;;;;;;5076946;28;20123;-78
2020/12/23 10:47:10;;;;;;;5.70;4.50;;;12.50;91.50;;;;;;5078036;28;20031;-78
2020/12/23 10:49:35;;;;;;;4.30;3.97;;;12.50;91.50;;;;;;5072993;28;20028;-78
2020/12/23 10:52:01;;;;;;;5.10;4.27;;;12.60;91.50;;;;;;5092448;28;20046;-78
2020/12/23 10:54:30;;;;;;;4.97;4.23;;;12.50;91.50;;;;;;5089364;28;20115;-78
2020/12/23 10:56:57;;;;;;;5.43;4.23;;;12.50;91.50;;;;;;5057757;28;20028;-78
2020/12/23 10:59:23;;;;;;;6.03;3.40;;;12.60;91.60;;;;;;5091990;28;20505;-78
2020/12/23 11:01:56;;;;;;;6.10;3.83;;;12.50;91.50;;;;;;5112315;28;20034;-79
2020/12/23 11:04:22;;;;;;;6.40;3.88;;;12.50;91.60;;;;;;5111818;28;20505;-78
2020/12/23 11:06:48;;;;;;;4.93;3.27;;;12.50;91.70;;;;;;5086317;28;20097;-77
2020/12/23 11:09:14;;;;;;;3.77;3.23;;;12.40;91.70;;;;;;5091627;28;20493;-78
2020/12/23 11:11:40;;;;;;;4.23;2.67;;;12.40;91.80;;;;;;5080512;28;20083;-77
2020/12/23 11:14:05;;;;;;;3.23;1.80;;;12.30;91.90;;;;;;5087575;28;20584;-77
2020/12/23 11:16:31;;;;;;;3.73;2.00;;;12.30;92.00;;;;;;5093447;28;20193;-77
2020/12/23 11:18:57;;;;;;;4.30;2.97;;;12.20;92.10;;;;;;5109617;28;20514;-78
2020/12/23 11:21:22;;;;;;;3.50;1.80;;;12.20;92.20;;;;;;5111906;28;20028;-77
2020/12/23 11:23:48;;;;;;;3.97;1.70;;;12.20;92.20;;;;;;5093252;28;20042;-77
2020/12/23 11:26:17;;;;;;;3.30;1.80;;;12.30;92.30;;;;;;5112402;28;20055;-79
2020/12/23 11:28:43;;;;;;;4.70;2.60;;;12.20;92.40;;;;;;5111795;28;20042;-77
2020/12/23 11:31:09;;;;;;;4.00;3.07;;;12.30;92.50;;;;;;5112171;28;20027;-77
2020/12/23 11:33:36;;;;;;;2.67;1.93;;;12.30;92.60;;;;;;5110887;28;20031;-77
2020/12/23 11:36:01;;;;;;;2.20;1.73;;;12.30;92.70;;;;;;5110964;28;20028;-77
2020/12/23 11:38:27;;;;;;;2.87;1.50;;;12.30;92.80;;;;;;5075780;28;20050;-77
2020/12/23 11:40:52;;;;;;;4.23;1.93;;;12.30;92.80;;;;;;5109380;28;20050;-77
2020/12/23 11:43:18;;;;;;;2.90;1.87;;;12.30;92.90;;;;;;5074796;28;20455;-78
2020/12/23 11:45:44;;;;;;;5.60;2.17;;;12.30;92.90;;;;;;5091475;28;20085;-77
2020/12/23 11:48:09;;;;;;;3.73;3.27;;;12.40;92.90;;;;;;5078333;28;20020;-77
2020/12/23 11:50:36;;;;;;;3.93;1.77;;;12.40;92.90;;;;;;5075977;28;20701;-77
2020/12/23 11:53:01;;;;;;;4.23;2.50;;;12.40;92.90;;;;;;5075970;28;20036;-77
2020/12/23 11:55:27;;;;;;;3.80;2.30;;;12.50;92.80;;;;;;5108517;28;20035;-77
2020/12/23 11:57:53;;;;;;;5.70;2.60;;;12.50;92.80;;;;;;5110278;28;20086;-77
2020/12/23 12:00:19;;;;;;;4.60;2.60;;;12.60;92.80;;;;;;5111114;28;20467;-78
2020/12/23 12:02:44;;;;;;;3.90;2.20;;;12.60;92.80;;;;;;5111189;28;20039;-77
2020/12/23 12:05:10;;;;;;;3.03;2.53;;;12.60;92.70;;;;;;5093036;28;20093;-78
2020/12/23 12:07:37;;;;;;;3.43;2.53;;;12.60;92.70;;;;;;5088163;28;20020;-78
2020/12/23 12:10:08;;;;;;;3.73;2.73;;;12.60;92.70;;;;;;5088695;28;20042;-76
2020/12/23 12:12:34;;;;;;;4.07;2.67;;;12.60;92.60;;;;;;5104855;28;20036;-76
2020/12/23 12:15:00;;;;;;;5.67;3.40;;;12.60;92.60;;;;;;5094741;28;21910;-76
2020/12/23 12:17:26;;;;;;;5.97;2.87;;;12.60;92.60;;;;;;5113771;28;20545;-79
2020/12/23 12:19:52;;;;;;;5.60;3.90;;;12.60;92.60;;;;;;5098545;28;20032;-76
2020/12/23 12:22:18;;;;;;;5.03;3.20;;;12.60;92.60;;;;;;5110553;28;20027;-76
2020/12/23 12:24:44;;;;;;;3.60;2.70;;;12.60;92.50;;;;;;5092669;28;20369;-76
2020/12/23 12:27:10;;;;;;;4.32;2.67;;;12.60;92.50;;;;;;5072443;28;20032;-77
2020/12/23 12:29:37;;;;;;;3.10;2.30;;;12.60;92.50;;;;;;5092101;28;20019;-77
2020/12/23 12:32:03;;;;;;;3.30;2.50;;;12.70;92.50;;;;;;5110427;28;20071;-77
2020/12/23 12:34:28;;;;;;;3.80;2.40;;;12.60;92.50;;;;;;5110006;28;20360;-77
2020/12/23 12:36:55;;;;;;;2.80;2.50;;;12.60;92.40;;;;;;5092327;28;20051;-76
2020/12/23 12:39:21;;;;;;;3.00;1.43;;;12.60;92.40;;;;;;5106838;28;20027;-77